createdAt,value
2022-09-26T00:01:13.879Z,95641.53
2022-09-26T00:03:46.829Z,95644.16
2022-09-26T00:06:13.608Z,95642.84
2022-09-26T00:08:40.665Z,95609.47
2022-09-26T00:11:09.970Z,95621.03
2022-09-26T00:13:38.944Z,95630.84
2022-09-26T00:16:06.509Z,95620.84
2022-09-26T00:18:33.347Z,95617.28
2022-09-26T00:21:09.874Z,95617.09
2022-09-26T00:23:37.107Z,95585.66
2022-09-26T00:26:04.539Z,95590.63
2022-09-26T00:28:32.115Z,95576.03
2022-09-26T00:31:08.252Z,95585.75
2022-09-26T00:33:35.386Z,95611.78
2022-09-26T00:36:02.556Z,95579.09
2022-09-26T00:38:29.607Z,95610.75
2022-09-26T00:40:56.410Z,95615.25
2022-09-26T00:43:35.187Z,95537.97
2022-09-26T00:46:24.447Z,95611.00
2022-09-26T00:49:12.507Z,95612.53
2022-09-26T00:51:41.893Z,95605.38
2022-09-26T00:54:15.328Z,95570.44
2022-09-26T00:56:45.069Z,95561.00
2022-09-26T00:59:22.294Z,95586.72
2022-09-26T01:01:51.308Z,95571.88
2022-09-26T01:04:18.252Z,95603.09
2022-09-26T01:06:45.863Z,95580.31
2022-09-26T01:09:15.044Z,95599.50
2022-09-26T01:11:43.351Z,95586.22
2022-09-26T01:14:12.216Z,95561.84
2022-09-26T01:16:40.720Z,95588.31
2022-09-26T01:19:25.023Z,95561.03
2022-09-26T01:21:54.549Z,95595.13
2022-09-26T01:24:46.335Z,95594.34
2022-09-26T01:27:45.238Z,95586.66
2022-09-26T01:30:21.375Z,95570.81
2022-09-26T01:33:03.368Z,95588.88
2022-09-26T01:35:39.888Z,95599.97
2022-09-26T01:38:32.386Z,95602.47
2022-09-26T01:41:02.066Z,95604.34
2022-09-26T01:43:59.635Z,95599.53
2022-09-26T01:46:26.228Z,95605.59
2022-09-26T01:49:17.717Z,95609.16
2022-09-26T01:51:51.280Z,95583.09
2022-09-26T01:54:31.772Z,95579.53
2022-09-26T01:57:00.517Z,95571.44
2022-09-26T01:59:35.153Z,95600.94
2022-09-26T02:02:12.514Z,95608.75
2022-09-26T02:04:44.722Z,95584.88
2022-09-26T02:07:19.960Z,95617.19
2022-09-26T02:09:51.159Z,95620.16
2022-09-26T02:12:23.698Z,95617.69
2022-09-26T02:14:52.911Z,95621.03
2022-09-26T02:17:26.730Z,95597.03
2022-09-26T02:19:56.792Z,95608.41
2022-09-26T02:22:30.712Z,95610.34
2022-09-26T02:24:58.084Z,95596.97
2022-09-26T02:27:27.343Z,95601.22
2022-09-26T02:29:54.854Z,95564.16
2022-09-26T02:32:27.990Z,95572.88
2022-09-26T02:34:56.442Z,95585.16
2022-09-26T02:37:24.789Z,95573.06
2022-09-26T02:39:53.105Z,95565.00
2022-09-26T02:42:49.865Z,95591.16
2022-09-26T02:45:25.438Z,95595.56
2022-09-26T02:48:05.627Z,95591.19
2022-09-26T02:51:10.011Z,95588.97
2022-09-26T02:54:14.112Z,95586.25
2022-09-26T02:57:14.467Z,95580.22
2022-09-26T02:59:51.961Z,95574.78
2022-09-26T03:02:32.650Z,95573.38
2022-09-26T03:05:20.397Z,95566.00
2022-09-26T03:07:50.745Z,95525.97
2022-09-26T03:10:18.210Z,95550.50
2022-09-26T03:12:46.276Z,95558.63
2022-09-26T03:15:14.269Z,95567.28
2022-09-26T03:17:47.294Z,95590.22
2022-09-26T03:20:18.258Z,95586.34
2022-09-26T03:22:45.300Z,95583.19
2022-09-26T03:25:16.932Z,95583.75
2022-09-26T03:27:51.970Z,95529.38
2022-09-26T03:30:21.549Z,95580.47
2022-09-26T03:33:06.612Z,95476.19
2022-09-26T03:35:33.454Z,95558.44
2022-09-26T03:38:00.023Z,95546.72
2022-09-26T03:40:28.221Z,95558.72
2022-09-26T03:43:17.792Z,95561.78
2022-09-26T03:45:44.532Z,95540.19
2022-09-26T03:48:18.642Z,95537.56
2022-09-26T03:50:45.707Z,95551.69
2022-09-26T03:53:12.560Z,95537.75
2022-09-26T03:55:39.289Z,95554.88
2022-09-26T03:58:05.951Z,95555.75
2022-09-26T04:00:38.823Z,95526.78
2022-09-26T04:03:06.623Z,95526.44
2022-09-26T04:05:40.125Z,95536.88
2022-09-26T04:08:06.956Z,95546.25
2022-09-26T04:10:35.132Z,95521.34
2022-09-26T04:13:01.727Z,95524.41
2022-09-26T04:15:29.359Z,95512.44
2022-09-26T04:18:10.861Z,95556.56
2022-09-26T04:20:37.724Z,95530.03
2022-09-26T04:23:04.790Z,95526.28
2022-09-26T04:25:32.016Z,95550.34
2022-09-26T04:27:59.241Z,95508.63
2022-09-26T04:30:26.325Z,95524.19
2022-09-26T04:32:56.648Z,95504.81
2022-09-26T04:35:35.292Z,95525.31
2022-09-26T04:38:01.992Z,95521.16
2022-09-26T04:40:29.347Z,95498.91
2022-09-26T04:43:03.378Z,95512.59
2022-09-26T04:45:30.029Z,95518.53
2022-09-26T04:47:56.922Z,95509.66
2022-09-26T04:50:26.446Z,95542.56
2022-09-26T04:53:06.443Z,95525.91
2022-09-26T04:55:36.802Z,95512.06
2022-09-26T04:58:03.903Z,95543.06
2022-09-26T05:00:31.321Z,95505.91
2022-09-26T05:03:02.989Z,95518.31
2022-09-26T05:05:31.279Z,95492.09
2022-09-26T05:07:57.889Z,95492.00
2022-09-26T05:10:24.780Z,95544.44
2022-09-26T05:12:59.590Z,95537.75
2022-09-26T05:15:26.209Z,95537.66
2022-09-26T05:18:00.514Z,95536.88
2022-09-26T05:20:31.441Z,95498.28
2022-09-26T05:23:02.422Z,95507.91
2022-09-26T05:25:55.291Z,95553.78
2022-09-26T05:28:22.754Z,95518.44
2022-09-26T05:30:51.325Z,95528.31
2022-09-26T05:33:19.473Z,95527.25
2022-09-26T05:35:50.987Z,95525.69
2022-09-26T05:38:17.567Z,95518.00
2022-09-26T05:40:56.869Z,95546.09
2022-09-26T05:43:28.098Z,95544.34
2022-09-26T05:45:58.232Z,95528.78
2022-09-26T05:48:29.145Z,95543.78
2022-09-26T05:50:56.278Z,95546.28
2022-09-26T05:53:24.977Z,95559.25
2022-09-26T05:55:52.228Z,95530.97
2022-09-26T05:58:37.137Z,95515.94
2022-09-26T06:01:36.016Z,95535.00
2022-09-26T06:04:14.993Z,95534.91
2022-09-26T06:07:00.069Z,95554.03
2022-09-26T06:09:26.649Z,95536.22
2022-09-26T06:12:11.834Z,95532.97
2022-09-26T06:14:38.432Z,95519.44
2022-09-26T06:17:04.996Z,95511.31
2022-09-26T06:19:31.612Z,95474.94
2022-09-26T06:21:58.215Z,95555.00
2022-09-26T06:24:24.922Z,95550.81
2022-09-26T06:26:56.288Z,95494.31
2022-09-26T06:29:22.969Z,95494.97
2022-09-26T06:31:50.543Z,95508.66
2022-09-26T06:34:32.371Z,95537.19
2022-09-26T06:37:19.305Z,95508.81
2022-09-26T06:39:45.889Z,95533.38
2022-09-26T06:42:12.895Z,95512.19
2022-09-26T06:44:52.152Z,95518.94
2022-09-26T06:47:25.007Z,95537.25
2022-09-26T06:50:11.552Z,95518.53
2022-09-26T06:52:44.025Z,95483.16
2022-09-26T06:55:11.869Z,95535.84
2022-09-26T06:57:40.686Z,95478.34
2022-09-26T07:00:09.793Z,95521.28
2022-09-26T07:02:55.857Z,95526.06
2022-09-26T07:05:46.813Z,95518.38
2022-09-26T07:08:14.299Z,95523.22
2022-09-26T07:10:40.910Z,95536.19
2022-09-26T07:13:12.340Z,95498.28
2022-09-26T07:15:40.155Z,95501.13
2022-09-26T07:18:22.207Z,95542.34
2022-09-26T07:21:04.949Z,95510.69
2022-09-26T07:23:46.964Z,95474.75
2022-09-26T07:26:18.652Z,95526.03
2022-09-26T07:28:50.836Z,95492.63
2022-09-26T07:31:20.479Z,95519.59
2022-09-26T07:34:08.650Z,95506.47
2022-09-26T07:36:37.203Z,95480.28
2022-09-26T07:39:03.996Z,95502.25
2022-09-26T07:41:31.150Z,95530.22
2022-09-26T07:47:04.559Z,95497.00
2022-09-26T07:49:50.229Z,95507.00
2022-09-26T07:52:31.343Z,95540.94
2022-09-26T07:55:26.328Z,95547.94
2022-09-26T07:58:07.138Z,95534.13
2022-09-26T08:00:52.192Z,95555.63
2022-09-26T08:03:49.904Z,95552.47
2022-09-26T08:06:27.610Z,95531.50
2022-09-26T08:08:55.598Z,95554.06
2022-09-26T08:11:41.847Z,95530.38
2022-09-26T08:14:28.686Z,95526.84
2022-09-26T08:17:17.273Z,95538.31
2022-09-26T08:19:44.083Z,95537.88
2022-09-26T08:22:11.259Z,95552.16
2022-09-26T08:24:38.927Z,95501.25
2022-09-26T08:27:24.393Z,95521.06
2022-09-26T08:29:51.539Z,95512.72
2022-09-26T08:32:20.080Z,95496.84
2022-09-26T08:34:47.621Z,95521.38
2022-09-26T08:37:42.970Z,95500.69
2022-09-26T08:40:35.566Z,95505.75
2022-09-26T08:43:40.297Z,95539.19
2022-09-26T08:47:01.391Z,95537.16
2022-09-26T08:49:48.907Z,95534.03
2022-09-26T08:52:30.802Z,95532.41
2022-09-26T08:55:01.530Z,95536.03
2022-09-26T08:57:42.370Z,95505.44
2022-09-26T09:00:19.681Z,95532.56
2022-09-26T09:03:02.048Z,95530.63
2022-09-26T09:05:35.674Z,95537.34
2022-09-26T09:08:07.869Z,95524.28
2022-09-26T09:10:45.943Z,95535.47
2022-09-26T09:13:45.661Z,95532.63
2022-09-26T09:17:02.906Z,95536.28
2022-09-26T09:19:59.823Z,95533.84
2022-09-26T09:23:17.589Z,95524.81
2022-09-26T09:29:01.971Z,95526.34
2022-09-26T09:31:32.485Z,95522.44
2022-09-26T09:34:41.330Z,95484.34
2022-09-26T09:37:53.752Z,95508.06
2022-09-26T09:40:46.725Z,95482.13
2022-09-26T09:43:19.059Z,95486.22
2022-09-26T09:45:49.177Z,95472.41
2022-09-26T09:48:16.443Z,95472.69
2022-09-26T09:50:55.437Z,95505.13
2022-09-26T09:53:45.847Z,95470.19
2022-09-26T09:56:27.811Z,95465.09
2022-09-26T09:59:38.913Z,95492.13
2022-09-26T10:02:19.661Z,95461.28
2022-09-26T10:04:58.047Z,95500.19
2022-09-26T10:07:24.965Z,95496.75
2022-09-26T10:10:21.101Z,95470.06
2022-09-26T10:13:09.018Z,95467.53
2022-09-26T10:16:05.690Z,95487.28
2022-09-26T10:19:03.717Z,95476.81
2022-09-26T10:21:35.150Z,95482.97
2022-09-26T10:24:06.679Z,95460.25
2022-09-26T10:26:49.835Z,95447.84
2022-09-26T10:29:35.137Z,95418.25
2022-09-26T10:32:03.977Z,95455.66
2022-09-26T10:34:38.691Z,95409.59
2022-09-26T10:37:25.704Z,95469.97
2022-09-26T10:40:18.636Z,95470.00
2022-09-26T10:42:47.161Z,95436.75
2022-09-26T10:45:17.471Z,95443.13
2022-09-26T10:48:21.977Z,95421.72
2022-09-26T10:51:07.638Z,95456.63
2022-09-26T10:53:41.334Z,95450.19
2022-09-26T10:56:13.854Z,95461.16
2022-09-26T10:58:46.471Z,95436.38
2022-09-26T11:01:27.712Z,95436.66
2022-09-26T11:03:59.949Z,95420.09
2022-09-26T11:06:31.872Z,95408.50
2022-09-26T11:09:31.086Z,95417.56
2022-09-26T11:12:25.633Z,95452.41
2022-09-26T11:15:06.915Z,95389.06
2022-09-26T11:17:48.582Z,95433.34
2022-09-26T11:20:48.086Z,95431.81
2022-09-26T11:23:23.010Z,95380.00
2022-09-26T11:29:02.174Z,95415.28
2022-09-26T11:31:43.757Z,95423.53
2022-09-26T11:37:41.133Z,95416.50
2022-09-26T11:43:24.420Z,95416.25
2022-09-26T11:46:21.118Z,95402.88
2022-09-26T11:49:32.741Z,95389.34
2022-09-26T11:53:01.398Z,95389.50
2022-09-26T11:55:50.735Z,95378.97
2022-09-26T11:58:39.140Z,95360.34
2022-09-26T12:01:24.376Z,95384.44
2022-09-26T12:03:57.062Z,95371.94
2022-09-26T12:06:36.558Z,95368.03
2022-09-26T12:09:34.658Z,95347.00
2022-09-26T12:12:09.531Z,95358.91
2022-09-26T12:14:47.920Z,95330.59
2022-09-26T12:17:35.131Z,95326.03
2022-09-26T12:20:07.870Z,95349.81
2022-09-26T12:22:48.061Z,95341.47
2022-09-26T12:25:30.198Z,95344.50
2022-09-26T12:28:09.231Z,95338.03
2022-09-26T12:30:44.843Z,95335.06
2022-09-26T12:33:20.973Z,95333.50
2022-09-26T12:36:40.291Z,95263.63
2022-09-26T12:39:19.028Z,95337.41
2022-09-26T12:42:16.386Z,95310.78
2022-09-26T12:44:55.760Z,95329.19
2022-09-26T12:47:34.638Z,95326.47
2022-09-26T12:50:14.589Z,95318.13
2022-09-26T12:52:56.176Z,95300.09
2022-09-26T12:56:06.995Z,95313.72
2022-09-26T12:58:43.881Z,95314.75
2022-09-26T13:01:37.440Z,95310.41
2022-09-26T13:04:39.750Z,95301.31
2022-09-26T13:07:29.089Z,95310.03
2022-09-26T13:09:59.107Z,95307.78
2022-09-26T13:12:47.256Z,95311.53
2022-09-26T13:15:20.332Z,95299.91
2022-09-26T13:17:54.548Z,95290.81
2022-09-26T13:20:38.485Z,95298.97
2022-09-26T13:23:31.411Z,95303.69
2022-09-26T13:26:14.509Z,95261.97
2022-09-26T13:29:17.539Z,95292.00
2022-09-26T13:31:55.277Z,95266.00
2022-09-26T13:34:31.242Z,95284.25
2022-09-26T13:36:59.721Z,95275.81
2022-09-26T13:39:26.967Z,95278.53
2022-09-26T13:42:36.347Z,95275.84
2022-09-26T13:45:38.090Z,95267.81
2022-09-26T13:48:22.228Z,95246.22
2022-09-26T13:51:00.758Z,95180.47
2022-09-26T13:53:52.674Z,95215.19
2022-09-26T13:56:44.110Z,95256.72
2022-09-26T13:59:19.823Z,95266.19
2022-09-26T14:02:23.381Z,95259.91
2022-09-26T14:04:52.305Z,95248.03
2022-09-26T14:08:00.703Z,95243.06
2022-09-26T14:10:27.244Z,95252.91
2022-09-26T14:13:12.648Z,95237.19
2022-09-26T14:15:48.705Z,95234.59
2022-09-26T14:18:44.080Z,95226.00
2022-09-26T14:21:12.638Z,95230.16
2022-09-26T14:24:10.429Z,95231.84
2022-09-26T14:26:44.526Z,95208.28
2022-09-26T14:29:25.265Z,95229.38
2022-09-26T14:32:03.558Z,95233.16
2022-09-26T14:34:37.458Z,95206.31
2022-09-26T14:37:27.042Z,95183.53
2022-09-26T14:39:59.577Z,95222.72
2022-09-26T14:42:31.860Z,95211.22
2022-09-26T14:45:06.121Z,95203.16
2022-09-26T14:47:48.506Z,95181.19
2022-09-26T14:50:24.540Z,95189.91
2022-09-26T14:52:54.873Z,95148.13
2022-09-26T14:55:21.972Z,95152.09
2022-09-26T14:57:48.659Z,95193.97
2022-09-26T15:00:54.863Z,95189.50
2022-09-26T15:03:22.258Z,95177.66
2022-09-26T15:05:49.360Z,95139.66
2022-09-26T15:08:24.110Z,95099.50
2022-09-26T15:10:51.556Z,95176.56
2022-09-26T15:13:18.162Z,95169.34
2022-09-26T15:15:45.019Z,95172.03
2022-09-26T15:18:26.874Z,95170.94
2022-09-26T15:21:10.957Z,95126.13
2022-09-26T15:23:52.751Z,95159.94
2022-09-26T15:26:36.110Z,95154.56
2022-09-26T15:29:06.312Z,95118.44
2022-09-26T15:31:41.375Z,95149.63
2022-09-26T15:34:13.306Z,95123.41
2022-09-26T15:36:42.578Z,95138.22
2022-09-26T15:39:31.028Z,95142.78
2022-09-26T15:42:24.448Z,95125.28
2022-09-26T15:44:59.542Z,95135.50
2022-09-26T15:47:29.831Z,95140.44
2022-09-26T15:50:08.697Z,95137.41
2022-09-26T15:52:37.166Z,95091.41
2022-09-26T15:55:06.239Z,95104.38
2022-09-26T15:57:34.001Z,95087.56
2022-09-26T16:00:02.557Z,95117.63
2022-09-26T16:02:32.786Z,95108.09
2022-09-26T16:05:00.345Z,95127.53
2022-09-26T16:07:30.780Z,95141.16
2022-09-26T16:09:58.502Z,95089.09
2022-09-26T16:12:29.767Z,95118.34
2022-09-26T16:15:03.610Z,95133.47
2022-09-26T16:17:58.060Z,95128.88
2022-09-26T16:20:28.805Z,95101.94
2022-09-26T16:23:04.073Z,95122.41
2022-09-26T16:25:33.362Z,95127.34
2022-09-26T16:28:08.837Z,95121.72
2022-09-26T16:30:37.761Z,95103.38
2022-09-26T16:33:11.144Z,95114.41
2022-09-26T16:35:44.880Z,95115.81
2022-09-26T16:38:29.201Z,95046.91
2022-09-26T16:41:08.108Z,95117.31
2022-09-26T16:43:37.616Z,95110.88
2022-09-26T16:46:13.592Z,95116.88
2022-09-26T16:48:41.406Z,95118.00
2022-09-26T16:51:39.845Z,95078.81
2022-09-26T16:54:21.844Z,95109.97
2022-09-26T16:56:52.858Z,95058.88
2022-09-26T16:59:26.789Z,95098.53
2022-09-26T17:02:00.317Z,95095.03
2022-09-26T17:04:32.975Z,95096.47
2022-09-26T17:07:07.465Z,95100.63
2022-09-26T17:09:36.291Z,95061.84
2022-09-26T17:12:13.472Z,95069.00
2022-09-26T17:14:42.142Z,95030.16
2022-09-26T17:17:21.858Z,95083.69
2022-09-26T17:19:56.742Z,95091.97
2022-09-26T17:22:26.609Z,95054.31
2022-09-26T17:24:54.192Z,95079.88
2022-09-26T17:27:25.726Z,95076.00
2022-09-26T17:29:58.845Z,95077.94
2022-09-26T17:32:35.870Z,95059.41
2022-09-26T17:35:10.669Z,95072.16
2022-09-26T17:37:37.390Z,95039.56
2022-09-26T17:40:13.904Z,95039.75
2022-09-26T17:42:40.663Z,95042.94
2022-09-26T17:45:09.052Z,95027.78
2022-09-26T17:47:35.963Z,95069.63
2022-09-26T17:50:02.778Z,95057.19
2022-09-26T17:52:32.239Z,95035.78
2022-09-26T17:55:04.142Z,95034.53
2022-09-26T17:57:34.569Z,95043.66
2022-09-26T18:00:06.963Z,95006.81
2022-09-26T18:02:42.674Z,95063.97
2022-09-26T18:05:23.732Z,95057.66
2022-09-26T18:07:52.526Z,95048.44
2022-09-26T18:10:30.274Z,95055.97
2022-09-26T18:13:00.862Z,95057.75
2022-09-26T18:15:29.004Z,95056.19
2022-09-26T18:17:56.150Z,95039.75
2022-09-26T18:20:34.319Z,95051.50
2022-09-26T18:23:01.041Z,95024.09
2022-09-26T18:25:27.950Z,94999.00
2022-09-26T18:27:56.721Z,95000.81
2022-09-26T18:30:24.099Z,95019.00
2022-09-26T18:32:54.934Z,95009.47
2022-09-26T18:35:24.743Z,95038.53
2022-09-26T18:37:56.082Z,94959.44
2022-09-26T18:40:28.604Z,95042.06
2022-09-26T18:42:57.797Z,94992.97
2022-09-26T18:45:35.952Z,95023.13
2022-09-26T18:48:20.422Z,95014.03
2022-09-26T18:50:47.281Z,95020.97
2022-09-26T18:53:17.033Z,95043.41
2022-09-26T18:56:02.284Z,95009.28
2022-09-26T18:58:32.061Z,95008.03
2022-09-26T19:01:05.607Z,95004.63
2022-09-26T19:03:41.198Z,95026.66
2022-09-26T19:06:38.266Z,95034.25
2022-09-26T19:09:08.087Z,95027.81
2022-09-26T19:11:35.235Z,94988.22
2022-09-26T19:14:26.180Z,95018.69
2022-09-26T19:16:53.439Z,95019.75
2022-09-26T19:19:20.876Z,95020.13
2022-09-26T19:21:50.528Z,95016.69
2022-09-26T19:24:46.749Z,95001.53
2022-09-26T19:27:52.804Z,95021.56
2022-09-26T19:30:21.813Z,94991.97
2022-09-26T19:33:13.305Z,95011.25
2022-09-26T19:35:40.701Z,94968.28
2022-09-26T19:38:25.680Z,95006.00
2022-09-26T19:40:53.769Z,94987.63
2022-09-26T19:43:22.042Z,95007.00
2022-09-26T19:45:52.336Z,94986.72
2022-09-26T19:48:21.860Z,94891.63
2022-09-26T19:50:49.457Z,94978.81
2022-09-26T19:53:18.685Z,95009.31
2022-09-26T19:55:50.448Z,94988.28
2022-09-26T19:58:25.632Z,94979.63
2022-09-26T20:00:55.720Z,94986.97
2022-09-26T20:03:40.533Z,94989.19
2022-09-26T20:06:15.203Z,94958.41
2022-09-26T20:08:42.050Z,94940.94
2022-09-26T20:11:09.343Z,94962.31
2022-09-26T20:13:56.170Z,94966.88
2022-09-26T20:16:23.740Z,94958.81
2022-09-26T20:18:51.645Z,94945.19
2022-09-26T20:21:29.309Z,94933.34
2022-09-26T20:23:58.411Z,94965.97
2022-09-26T20:26:25.287Z,94942.69
2022-09-26T20:28:51.917Z,94937.25
2022-09-26T20:31:27.161Z,94964.13
2022-09-26T20:33:56.900Z,94949.84
2022-09-26T20:36:32.860Z,94942.63
2022-09-26T20:39:03.989Z,94909.16
2022-09-26T20:41:30.656Z,94946.00
2022-09-26T20:44:03.747Z,94940.28
2022-09-26T20:46:39.590Z,94893.81
2022-09-26T20:49:12.812Z,94884.72
2022-09-26T20:51:39.854Z,94880.97
2022-09-26T20:54:18.618Z,94908.47
2022-09-26T20:56:47.571Z,94900.06
2022-09-26T20:59:14.761Z,94902.28
2022-09-26T21:01:41.788Z,94886.31
2022-09-26T21:04:14.248Z,94908.47
2022-09-26T21:06:41.648Z,94905.47
2022-09-26T21:09:19.681Z,94899.72
2022-09-26T21:11:50.290Z,94887.16
2022-09-26T21:14:18.201Z,94872.84
2022-09-26T21:16:50.566Z,94851.44
2022-09-26T21:19:23.119Z,94885.00
2022-09-26T21:21:56.837Z,94883.44
2022-09-26T21:24:41.734Z,94793.31
2022-09-26T21:27:12.850Z,94813.88
2022-09-26T21:29:43.650Z,94834.38
2022-09-26T21:32:17.204Z,94829.81
2022-09-26T21:34:54.476Z,94706.72
2022-09-26T21:37:21.313Z,94765.78
2022-09-26T21:39:48.020Z,94792.66
2022-09-26T21:42:14.853Z,94820.56
2022-09-26T21:44:45.960Z,94795.72
2022-09-26T21:47:12.736Z,94767.91
2022-09-26T21:49:39.453Z,94773.72
2022-09-26T21:52:11.900Z,94832.72
2022-09-26T21:54:42.815Z,94827.75
2022-09-26T21:57:14.918Z,94823.59
2022-09-26T21:59:42.709Z,94800.81
2022-09-26T22:02:09.415Z,94768.09
2022-09-26T22:04:36.136Z,94815.66
2022-09-26T22:07:02.944Z,94813.81
2022-09-26T22:09:30.306Z,94792.84
2022-09-26T22:11:57.264Z,94764.03
2022-09-26T22:14:23.991Z,94797.88
2022-09-26T22:16:50.775Z,94757.59
2022-09-26T22:19:17.560Z,94769.84
2022-09-26T22:21:44.207Z,94713.97
2022-09-26T22:24:11.144Z,94726.56
2022-09-26T22:26:37.976Z,94771.81
2022-09-26T22:29:04.742Z,94725.22
2022-09-26T22:31:31.440Z,94753.34
2022-09-26T22:33:59.483Z,94757.19
2022-09-26T22:36:26.451Z,94750.69
2022-09-26T22:38:54.799Z,94752.56
2022-09-26T22:41:21.760Z,94691.84
2022-09-26T22:43:49.273Z,94732.53
2022-09-26T22:46:16.504Z,94633.31
2022-09-26T22:48:48.100Z,94717.75
2022-09-26T22:51:16.464Z,94720.88
2022-09-26T22:53:44.189Z,94727.81
2022-09-26T22:56:13.855Z,94679.84
2022-09-26T22:58:43.714Z,94731.91
2022-09-26T23:01:16.947Z,94721.34
2022-09-26T23:04:03.960Z,94697.72
2022-09-26T23:06:31.449Z,94693.28
2022-09-26T23:08:58.219Z,94684.50
2022-09-26T23:11:26.054Z,94717.88
2022-09-26T23:13:53.027Z,94676.88
2022-09-26T23:16:22.182Z,94703.88
2022-09-26T23:18:50.090Z,94703.63
2022-09-26T23:21:19.042Z,94669.47
2022-09-26T23:23:48.332Z,94686.22
2022-09-26T23:26:32.010Z,94695.22
2022-09-26T23:28:59.510Z,94689.22
2022-09-26T23:31:27.640Z,94685.38
2022-09-26T23:33:54.843Z,94686.53
2022-09-26T23:36:22.024Z,94654.22
2022-09-26T23:38:48.990Z,94641.41
2022-09-26T23:41:16.043Z,94642.63
2022-09-26T23:43:42.805Z,94646.06
2022-09-26T23:46:10.551Z,94649.84
2022-09-26T23:48:37.305Z,94662.78
2022-09-26T23:51:04.191Z,94619.94
2022-09-26T23:53:31.873Z,94643.19
2022-09-26T23:56:17.004Z,94619.28
2022-09-26T23:58:43.824Z,94621.19
